createdAt,value
2019-02-12T00:00:57.807Z,5.10
2019-02-12T00:03:26.706Z,5.00
2019-02-12T00:05:54.849Z,5.00
2019-02-12T00:08:22.947Z,4.80
2019-02-12T00:10:51.039Z,4.70
2019-02-12T00:13:19.558Z,4.60
2019-02-12T00:15:47.797Z,4.70
2019-02-12T00:18:16.098Z,4.60
2019-02-12T00:20:44.276Z,4.60
2019-02-12T00:23:12.821Z,4.70
2019-02-12T00:25:41.595Z,4.70
2019-02-12T00:28:10.029Z,4.60
2019-02-12T00:30:38.620Z,4.70
2019-02-12T00:33:06.804Z,4.60
2019-02-12T00:35:34.817Z,4.60
2019-02-12T00:38:02.995Z,4.60
2019-02-12T00:40:31.009Z,4.60
2019-02-12T00:42:58.970Z,4.60
2019-02-12T00:45:27.093Z,4.60
2019-02-12T00:47:55.200Z,4.50
2019-02-12T00:50:23.230Z,4.50
2019-02-12T00:52:51.273Z,4.50
2019-02-12T00:55:19.703Z,4.40
2019-02-12T00:57:47.634Z,4.30
2019-02-12T01:00:15.781Z,4.30
2019-02-12T01:02:43.873Z,4.30
2019-02-12T01:05:12.469Z,4.20
2019-02-12T01:07:40.444Z,4.20
2019-02-12T01:10:08.942Z,4.20
2019-02-12T01:12:37.115Z,4.30
2019-02-12T01:15:06.918Z,4.30
2019-02-12T01:17:35.157Z,4.40
2019-02-12T01:20:04.206Z,4.40
2019-02-12T01:22:32.162Z,4.50
2019-02-12T01:25:00.140Z,4.50
2019-02-12T01:27:28.880Z,4.60
2019-02-12T01:29:57.429Z,4.70
2019-02-12T01:32:25.935Z,4.70
2019-02-12T01:34:54.276Z,4.70
2019-02-12T01:37:22.805Z,4.80
2019-02-12T01:39:51.169Z,4.80
2019-02-12T01:42:19.946Z,4.80
2019-02-12T01:44:48.485Z,4.80
2019-02-12T01:47:16.859Z,4.80
2019-02-12T01:49:44.909Z,4.80
2019-02-12T01:52:13.719Z,4.80
2019-02-12T01:54:42.121Z,4.80
2019-02-12T01:57:10.142Z,4.80
2019-02-12T01:59:38.207Z,4.90
2019-02-12T02:02:06.253Z,4.90
2019-02-12T02:04:34.295Z,4.80
2019-02-12T02:07:02.322Z,4.70
2019-02-12T02:09:30.481Z,4.80
2019-02-12T02:11:58.394Z,4.80
2019-02-12T02:14:26.337Z,4.90
2019-02-12T02:16:54.306Z,4.90
2019-02-12T02:19:28.473Z,4.90
2019-02-12T02:21:55.397Z,4.90
2019-02-12T02:24:24.299Z,5.00
2019-02-12T02:26:52.237Z,5.00
2019-02-12T02:29:22.090Z,5.00
2019-02-12T02:31:50.050Z,5.00
2019-02-12T02:34:18.029Z,5.10
2019-02-12T02:36:46.070Z,5.10
2019-02-12T02:39:14.026Z,5.00
2019-02-12T02:41:42.721Z,5.00
2019-02-12T02:44:10.964Z,4.90
2019-02-12T02:46:38.886Z,4.80
2019-02-12T02:49:06.978Z,4.80
2019-02-12T02:51:34.901Z,4.70
2019-02-12T02:54:03.408Z,4.70
2019-02-12T02:56:31.686Z,4.70
2019-02-12T02:59:00.156Z,4.50
2019-02-12T03:01:28.563Z,4.40
2019-02-12T03:03:56.737Z,4.40
2019-02-12T03:06:25.165Z,4.40
2019-02-12T03:08:54.049Z,4.30
2019-02-12T03:11:23.550Z,4.30
2019-02-12T03:13:55.035Z,4.20
2019-02-12T03:16:23.431Z,4.20
2019-02-12T03:18:52.234Z,4.10
2019-02-12T03:21:20.417Z,4.10
2019-02-12T03:23:48.887Z,4.10
2019-02-12T03:26:16.819Z,4.10
2019-02-12T03:28:44.961Z,4.10
2019-02-12T03:31:13.131Z,4.00
2019-02-12T03:33:42.019Z,3.90
2019-02-12T03:36:10.206Z,3.90
2019-02-12T03:38:40.313Z,3.90
2019-02-12T03:41:09.113Z,3.90
2019-02-12T03:43:37.489Z,3.80
2019-02-12T03:46:05.808Z,3.90
2019-02-12T03:48:34.527Z,4.00
2019-02-12T03:51:03.027Z,4.00
2019-02-12T03:53:31.273Z,4.00
2019-02-12T03:55:59.326Z,4.00
2019-02-12T03:58:27.445Z,4.00
2019-02-12T04:00:55.815Z,4.10
2019-02-12T04:03:23.947Z,4.10
2019-02-12T04:05:52.178Z,4.10
2019-02-12T04:08:20.205Z,4.00
2019-02-12T04:10:48.862Z,4.00
2019-02-12T04:13:17.139Z,3.80
2019-02-12T04:15:46.480Z,3.80
2019-02-12T04:18:14.681Z,3.70
2019-02-12T04:20:42.861Z,3.60
2019-02-12T04:23:11.349Z,3.60
2019-02-12T04:25:40.492Z,3.60
2019-02-12T04:28:09.166Z,3.60
2019-02-12T04:30:37.943Z,3.60
2019-02-12T04:33:06.605Z,3.60
2019-02-12T04:35:35.223Z,3.60
2019-02-12T04:38:03.622Z,3.60
2019-02-12T04:40:32.235Z,3.50
2019-02-12T04:43:01.227Z,3.60
2019-02-12T04:45:29.605Z,3.50
2019-02-12T04:47:59.589Z,3.60
2019-02-12T04:50:27.853Z,3.60
2019-02-12T04:52:56.546Z,3.60
2019-02-12T04:55:25.243Z,3.50
2019-02-12T04:57:53.918Z,3.40
2019-02-12T05:00:22.807Z,3.50
2019-02-12T05:02:51.605Z,3.50
2019-02-12T05:05:20.018Z,3.50
2019-02-12T05:07:48.554Z,3.40
2019-02-12T05:10:17.986Z,3.40
2019-02-12T05:12:46.393Z,3.40
2019-02-12T05:15:15.259Z,3.40
2019-02-12T05:17:43.461Z,3.40
2019-02-12T05:20:12.297Z,3.40
2019-02-12T05:22:43.580Z,3.30
2019-02-12T05:25:11.454Z,3.30
2019-02-12T05:27:39.787Z,3.30
2019-02-12T05:30:08.793Z,3.40
2019-02-12T05:32:37.457Z,3.30
2019-02-12T05:35:06.718Z,3.40
2019-02-12T05:37:35.823Z,3.40
2019-02-12T05:40:04.496Z,3.40
2019-02-12T05:42:32.853Z,3.40
2019-02-12T05:45:01.427Z,3.30
2019-02-12T05:47:30.186Z,3.40
2019-02-12T05:49:58.597Z,3.30
2019-02-12T05:52:26.603Z,3.40
2019-02-12T05:54:55.189Z,3.40
2019-02-12T05:57:27.108Z,3.30
2019-02-12T05:59:55.649Z,3.40
2019-02-12T06:02:24.861Z,3.50
2019-02-12T06:04:53.339Z,3.40
2019-02-12T06:07:21.985Z,3.40
2019-02-12T06:09:50.751Z,3.30
2019-02-12T06:12:18.920Z,3.40
2019-02-12T06:14:47.100Z,3.50
2019-02-12T06:17:15.773Z,3.60
2019-02-12T06:19:44.577Z,3.60
2019-02-12T06:22:12.641Z,3.60
2019-02-12T06:24:41.236Z,3.60
2019-02-12T06:27:09.876Z,3.70
2019-02-12T06:29:39.388Z,3.70
2019-02-12T06:32:07.796Z,3.80
2019-02-12T06:34:36.347Z,3.80
2019-02-12T06:37:04.796Z,3.80
2019-02-12T06:39:33.513Z,3.90
2019-02-12T06:42:01.419Z,3.80
2019-02-12T06:44:29.355Z,3.80
2019-02-12T06:46:58.064Z,3.90
2019-02-12T06:49:26.672Z,3.90
2019-02-12T06:51:54.893Z,4.00
2019-02-12T06:54:23.386Z,4.00
2019-02-12T06:56:51.693Z,4.10
2019-02-12T06:59:19.629Z,4.00
2019-02-12T07:01:47.545Z,4.00
2019-02-12T07:04:21.590Z,4.10
2019-02-12T07:07:10.430Z,4.10
2019-02-12T07:09:51.478Z,4.10
2019-02-12T07:13:04.500Z,4.20
2019-02-12T07:15:36.547Z,4.20
2019-02-12T07:18:58.750Z,4.30
2019-02-12T07:21:35.630Z,4.30
2019-02-12T07:24:30.073Z,4.30
2019-02-12T07:27:37.398Z,4.40
2019-02-12T07:30:59.406Z,4.40
2019-02-12T07:34:06.881Z,4.40
2019-02-12T07:36:42.838Z,4.40
2019-02-12T07:39:38.678Z,4.50
2019-02-12T07:42:43.636Z,4.60
2019-02-12T07:45:49.506Z,4.60
2019-02-12T07:48:33.313Z,4.70
2019-02-12T07:51:42.590Z,4.80
2019-02-12T07:54:43.721Z,4.80
2019-02-12T07:57:37.569Z,4.90
2019-02-12T08:00:43.369Z,4.90
2019-02-12T08:03:53.726Z,4.90
2019-02-12T08:06:48.389Z,4.90
2019-02-12T08:09:55.358Z,5.00
2019-02-12T08:12:37.398Z,5.20
2019-02-12T08:15:42.433Z,5.20
2019-02-12T08:18:51.633Z,5.30
2019-02-12T08:21:46.815Z,5.20
2019-02-12T08:24:41.772Z,5.10
2019-02-12T08:27:38.014Z,5.20
2019-02-12T08:30:33.685Z,5.10
2019-02-12T08:33:46.017Z,5.10
2019-02-12T08:36:44.510Z,5.10
2019-02-12T08:39:56.693Z,5.10
2019-02-12T08:42:34.937Z,5.20
2019-02-12T08:45:32.038Z,5.10
2019-02-12T08:48:09.601Z,5.10
2019-02-12T08:51:01.187Z,5.20
2019-02-12T08:54:05.701Z,5.20
2019-02-12T08:56:45.689Z,5.20
2019-02-12T08:59:22.429Z,5.20
2019-02-12T09:02:15.446Z,5.30
2019-02-12T09:05:28.976Z,5.40
2019-02-12T09:08:05.656Z,5.30
2019-02-12T09:10:59.519Z,5.40
2019-02-12T09:14:01.754Z,5.40
2019-02-12T09:17:13.506Z,5.40
2019-02-12T09:19:51.895Z,5.40
2019-02-12T09:22:46.786Z,5.50
2019-02-12T09:26:06.187Z,5.60
2019-02-12T09:29:06.288Z,5.70
2019-02-12T09:32:12.346Z,5.80
2019-02-12T09:35:12.666Z,5.80
2019-02-12T09:37:56.534Z,5.70
2019-02-12T09:40:34.609Z,5.60
2019-02-12T09:43:23.676Z,5.60
2019-02-12T09:46:17.406Z,5.70
2019-02-12T09:49:16.585Z,5.70
2019-02-12T09:52:09.093Z,5.70
2019-02-12T09:55:10.709Z,5.80
2019-02-12T09:58:15.173Z,5.90
2019-02-12T10:00:52.769Z,5.90
2019-02-12T10:03:56.070Z,6.00
2019-02-12T10:07:00.434Z,6.00
2019-02-12T10:09:57.620Z,6.00
2019-02-12T10:13:07.893Z,6.10
2019-02-12T10:16:20.229Z,6.20
2019-02-12T10:19:16.082Z,6.40
2019-02-12T10:22:26.814Z,6.50
2019-02-12T10:25:01.282Z,6.70
2019-02-12T10:28:23.235Z,6.90
2019-02-12T10:31:20.562Z,7.10
2019-02-12T10:33:47.677Z,7.50
2019-02-12T10:36:14.816Z,7.80
2019-02-12T10:38:48.251Z,8.10
2019-02-12T10:41:15.173Z,8.70
2019-02-12T10:43:42.391Z,8.80
2019-02-12T10:46:09.445Z,8.80
2019-02-12T10:48:37.365Z,8.90
2019-02-12T10:51:05.718Z,8.90
2019-02-12T10:53:35.685Z,8.80
2019-02-12T10:56:04.708Z,8.70
2019-02-12T10:58:33.017Z,8.70
2019-02-12T11:01:01.248Z,8.70
2019-02-12T11:03:29.287Z,8.70
2019-02-12T11:06:02.169Z,8.80
2019-02-12T11:08:30.138Z,9.00
2019-02-12T11:10:58.292Z,9.40
2019-02-12T11:13:26.301Z,9.30
2019-02-12T11:15:54.440Z,9.10
2019-02-12T11:18:28.325Z,9.10
2019-02-12T11:20:56.477Z,9.30
2019-02-12T11:23:24.368Z,9.60
2019-02-12T11:25:52.401Z,9.70
2019-02-12T11:28:20.318Z,10.00
2019-02-12T11:30:49.833Z,10.20
2019-02-12T11:33:18.181Z,10.70
2019-02-12T11:35:46.481Z,10.90
2019-02-12T11:38:14.758Z,11.10
2019-02-12T11:40:43.208Z,10.60
2019-02-12T11:43:14.007Z,10.30
2019-02-12T11:45:41.970Z,10.40
2019-02-12T11:48:10.160Z,10.40
2019-02-12T11:50:38.134Z,10.30
2019-02-12T11:53:06.774Z,10.10
2019-02-12T11:55:38.594Z,10.10
2019-02-12T11:58:06.525Z,10.20
2019-02-12T12:00:40.489Z,10.10
2019-02-12T12:03:08.466Z,10.10
2019-02-12T12:05:42.228Z,10.20
2019-02-12T12:08:10.238Z,10.10
2019-02-12T12:10:38.404Z,9.80
2019-02-12T12:13:06.777Z,9.60
2019-02-12T12:15:40.017Z,9.50
2019-02-12T12:18:08.313Z,9.40
2019-02-12T12:20:35.706Z,9.40
2019-02-12T12:23:02.817Z,9.30
2019-02-12T12:25:30.098Z,9.20
2019-02-12T12:27:58.429Z,9.20
2019-02-12T12:30:26.510Z,9.20
2019-02-12T12:32:56.558Z,9.20
2019-02-12T12:35:24.697Z,9.20
2019-02-12T12:37:54.620Z,9.10
2019-02-12T12:40:22.893Z,9.00
2019-02-12T12:42:50.926Z,8.90
2019-02-12T12:45:22.843Z,8.80
2019-02-12T12:47:52.842Z,8.90
2019-02-12T12:50:20.972Z,8.90
2019-02-12T12:52:48.136Z,8.90
2019-02-12T12:55:16.072Z,8.90
2019-02-12T12:57:47.853Z,9.00
2019-02-12T13:00:16.773Z,9.00
2019-02-12T13:02:44.916Z,9.00
2019-02-12T13:05:13.085Z,9.10
2019-02-12T13:07:41.134Z,9.00
2019-02-12T13:10:14.341Z,9.00
2019-02-12T13:12:42.581Z,9.00
2019-02-12T13:15:11.256Z,8.90
2019-02-12T13:17:39.742Z,8.90
2019-02-12T13:20:15.981Z,9.00
2019-02-12T13:22:44.102Z,9.00
2019-02-12T13:25:12.248Z,9.00
2019-02-12T13:27:40.277Z,8.90
2019-02-12T13:30:11.358Z,8.90
2019-02-12T13:32:41.337Z,8.90
2019-02-12T13:35:09.521Z,8.90
2019-02-12T13:37:37.882Z,9.10
2019-02-12T13:40:07.707Z,9.10
2019-02-12T13:42:36.273Z,9.10
2019-02-12T13:45:08.021Z,8.90
2019-02-12T13:47:36.281Z,8.80
2019-02-12T13:50:05.246Z,8.80
2019-02-12T13:52:33.764Z,8.70
2019-02-12T13:55:02.083Z,8.60
2019-02-12T13:57:31.813Z,8.70
2019-02-12T13:59:59.850Z,8.80
2019-02-12T14:02:27.881Z,8.70
2019-02-12T14:04:56.453Z,8.70
2019-02-12T14:07:24.713Z,8.80
2019-02-12T14:09:55.111Z,8.80
2019-02-12T14:12:23.042Z,8.90
2019-02-12T14:14:51.317Z,9.00
2019-02-12T14:17:20.009Z,9.20
2019-02-12T14:19:48.923Z,9.50
2019-02-12T14:22:18.041Z,9.70
2019-02-12T14:24:46.608Z,9.90
2019-02-12T14:27:15.163Z,9.90
2019-02-12T14:29:43.877Z,9.80
2019-02-12T14:32:12.238Z,10.00
2019-02-12T14:34:43.707Z,10.10
2019-02-12T14:37:12.155Z,10.30
2019-02-12T14:39:40.331Z,10.60
2019-02-12T14:42:09.018Z,10.60
2019-02-12T14:44:37.345Z,10.80
2019-02-12T14:47:06.581Z,11.10
2019-02-12T14:49:35.309Z,11.10
2019-02-12T14:52:03.710Z,10.90
2019-02-12T14:54:32.029Z,10.70
2019-02-12T14:57:00.290Z,10.70
2019-02-12T14:59:31.981Z,10.90
2019-02-12T15:02:00.290Z,10.90
2019-02-12T15:04:28.330Z,10.60
2019-02-12T15:06:57.278Z,10.30
2019-02-12T15:09:25.989Z,10.00
2019-02-12T15:11:56.280Z,9.80
2019-02-12T15:14:28.311Z,9.70
2019-02-12T15:16:57.069Z,9.70
2019-02-12T15:19:26.036Z,9.60
2019-02-12T15:21:54.710Z,9.60
2019-02-12T15:24:23.758Z,9.40
2019-02-12T15:26:52.197Z,9.20
2019-02-12T15:29:20.366Z,8.90
2019-02-12T15:31:49.077Z,8.90
2019-02-12T15:34:20.290Z,8.90
2019-02-12T15:36:51.238Z,8.80
2019-02-12T15:39:18.697Z,8.80
2019-02-12T15:41:46.995Z,8.50
2019-02-12T15:44:15.698Z,8.50
2019-02-12T15:46:47.625Z,8.50
2019-02-12T15:49:15.821Z,8.40
2019-02-12T15:51:44.061Z,8.40
2019-02-12T15:54:12.391Z,8.30
2019-02-12T15:56:40.978Z,8.30
2019-02-12T15:59:09.676Z,8.30
2019-02-12T16:01:38.677Z,8.20
2019-02-12T16:04:07.162Z,8.10
2019-02-12T16:06:35.648Z,8.00
2019-02-12T16:09:05.465Z,7.90
2019-02-12T16:11:33.749Z,7.80
2019-02-12T16:14:06.815Z,7.80
2019-02-12T16:16:35.254Z,7.90
2019-02-12T16:19:05.716Z,7.70
2019-02-12T16:21:34.070Z,7.70
2019-02-12T16:24:02.235Z,7.50
2019-02-12T16:26:32.874Z,7.40
2019-02-12T16:29:01.804Z,7.50
2019-02-12T16:31:30.332Z,7.50
2019-02-12T16:33:58.953Z,7.50
2019-02-12T16:36:27.050Z,7.40
2019-02-12T16:38:58.069Z,7.30
2019-02-12T16:41:26.765Z,7.30
2019-02-12T16:43:55.083Z,7.40
2019-02-12T16:46:23.449Z,7.40
2019-02-12T16:48:51.509Z,7.40
2019-02-12T16:51:21.914Z,7.40
2019-02-12T16:53:49.887Z,7.30
2019-02-12T16:56:17.931Z,7.20
2019-02-12T16:58:46.410Z,7.20
2019-02-12T17:01:14.502Z,7.10
2019-02-12T17:03:42.907Z,7.10
2019-02-12T17:06:11.185Z,7.00
2019-02-12T17:08:39.358Z,6.90
2019-02-12T17:11:07.401Z,6.80
2019-02-12T17:13:35.346Z,6.90
2019-02-12T17:16:03.802Z,6.80
2019-02-12T17:18:32.021Z,6.80
2019-02-12T17:21:03.273Z,6.70
2019-02-12T17:23:31.322Z,6.70
2019-02-12T17:25:59.662Z,6.70
2019-02-12T17:28:27.914Z,6.60
2019-02-12T17:30:57.766Z,6.60
2019-02-12T17:33:25.706Z,6.60
2019-02-12T17:35:53.945Z,6.50
2019-02-12T17:38:22.004Z,6.50
2019-02-12T17:40:50.086Z,6.50
2019-02-12T17:43:18.163Z,6.50
2019-02-12T17:45:46.334Z,6.50
2019-02-12T17:48:16.368Z,6.60
2019-02-12T17:50:44.574Z,6.50
2019-02-12T17:53:12.869Z,6.50
2019-02-12T17:55:40.830Z,6.50
2019-02-12T17:58:08.886Z,6.50
2019-02-12T18:00:41.488Z,6.40
2019-02-12T18:03:09.777Z,6.40
2019-02-12T18:05:37.860Z,6.30
2019-02-12T18:08:06.155Z,6.30
2019-02-12T18:10:34.193Z,6.30
2019-02-12T18:13:02.274Z,6.40
2019-02-12T18:15:30.297Z,6.30
2019-02-12T18:17:58.259Z,6.40
2019-02-12T18:20:26.951Z,6.30
2019-02-12T18:22:55.082Z,6.30
2019-02-12T18:25:24.929Z,6.20
2019-02-12T18:27:53.034Z,6.20
2019-02-12T18:30:21.141Z,6.30
2019-02-12T18:32:49.193Z,6.20
2019-02-12T18:35:17.713Z,6.10
2019-02-12T18:37:45.759Z,6.10
2019-02-12T18:40:13.883Z,5.90
2019-02-12T18:42:41.980Z,6.00
2019-02-12T18:45:11.473Z,5.90
2019-02-12T18:47:39.529Z,5.80
2019-02-12T18:50:08.465Z,5.80
2019-02-12T18:52:36.594Z,5.80
2019-02-12T18:55:05.018Z,5.80
2019-02-12T18:57:33.146Z,5.80
2019-02-12T19:00:01.286Z,5.80
2019-02-12T19:02:29.426Z,5.80
2019-02-12T19:04:57.547Z,5.80
2019-02-12T19:07:25.587Z,5.80
2019-02-12T19:09:53.626Z,5.80
2019-02-12T19:12:21.665Z,5.90
2019-02-12T19:14:49.945Z,5.80
2019-02-12T19:17:17.879Z,5.90
2019-02-12T19:19:45.961Z,5.90
2019-02-12T19:22:14.014Z,5.80
2019-02-12T19:24:42.056Z,5.80
2019-02-12T19:27:10.110Z,5.70
2019-02-12T19:29:39.397Z,5.80
2019-02-12T19:32:07.550Z,5.80
2019-02-12T19:34:35.537Z,5.70
2019-02-12T19:37:03.569Z,5.60
2019-02-12T19:39:31.513Z,5.70
2019-02-12T19:41:59.470Z,5.70
2019-02-12T19:44:27.427Z,5.70
2019-02-12T19:46:55.621Z,5.70
2019-02-12T19:49:23.838Z,5.60
2019-02-12T19:51:52.962Z,5.70
2019-02-12T19:54:20.919Z,5.60
2019-02-12T19:56:48.862Z,5.50
2019-02-12T19:59:16.837Z,5.60
2019-02-12T20:01:44.985Z,5.70
2019-02-12T20:04:13.065Z,5.60
2019-02-12T20:06:41.351Z,5.60
2019-02-12T20:09:16.546Z,5.70
2019-02-12T20:11:44.692Z,5.70
2019-02-12T20:14:12.763Z,5.70
2019-02-12T20:16:40.795Z,5.70
2019-02-12T20:19:09.170Z,5.50
2019-02-12T20:21:37.277Z,5.70
2019-02-12T20:24:05.235Z,5.60
2019-02-12T20:26:33.334Z,5.60
2019-02-12T20:29:01.356Z,5.60
2019-02-12T20:31:29.465Z,5.70
2019-02-12T20:33:57.662Z,5.70
2019-02-12T20:36:25.864Z,5.70
2019-02-12T20:38:54.214Z,5.70
2019-02-12T20:41:22.343Z,5.60
2019-02-12T20:43:50.685Z,5.80
2019-02-12T20:46:18.876Z,5.80
2019-02-12T20:48:47.533Z,5.90
2019-02-12T20:51:15.782Z,5.90
2019-02-12T20:53:43.809Z,5.90
2019-02-12T20:56:12.234Z,5.90
2019-02-12T20:58:57.745Z,5.90
2019-02-12T21:01:43.145Z,5.90
2019-02-12T21:04:28.830Z,5.90
2019-02-12T21:07:14.370Z,5.90
2019-02-12T21:09:53.293Z,5.90
2019-02-12T21:12:38.721Z,5.90
2019-02-12T21:15:24.358Z,5.90
2019-02-12T21:18:09.583Z,5.80
2019-02-12T21:20:37.845Z,5.80
2019-02-12T21:23:05.930Z,5.80
2019-02-12T21:25:34.154Z,5.80
2019-02-12T21:28:02.435Z,5.80
2019-02-12T21:30:30.780Z,5.90
2019-02-12T21:32:58.925Z,5.80
2019-02-12T21:35:27.116Z,5.90
2019-02-12T21:37:55.346Z,5.90
2019-02-12T21:40:23.887Z,5.90
2019-02-12T21:42:52.286Z,5.90
2019-02-12T21:45:20.422Z,5.80
2019-02-12T21:47:48.645Z,5.80
2019-02-12T21:50:18.516Z,5.80
2019-02-12T21:52:48.090Z,5.70
2019-02-12T21:55:19.471Z,5.80
2019-02-12T21:57:47.625Z,5.90
2019-02-12T22:00:15.990Z,5.90
2019-02-12T22:02:44.150Z,5.90
2019-02-12T22:05:12.699Z,5.80
2019-02-12T22:07:40.840Z,5.80
2019-02-12T22:10:10.910Z,5.90
2019-02-12T22:12:38.878Z,5.90
2019-02-12T22:15:09.797Z,5.90
2019-02-12T22:17:38.349Z,5.90
2019-02-12T22:20:07.870Z,6.00
2019-02-12T22:22:35.901Z,6.00
2019-02-12T22:25:04.305Z,6.00
2019-02-12T22:27:39.874Z,6.00
2019-02-12T22:30:03.696Z,6.00
2019-02-12T22:32:31.637Z,6.10
2019-02-12T22:34:59.701Z,6.20
2019-02-12T22:37:27.773Z,6.20
2019-02-12T22:39:55.709Z,6.20
2019-02-12T22:42:23.755Z,6.10
2019-02-12T22:44:52.041Z,6.10
2019-02-12T22:47:20.096Z,6.20
2019-02-12T22:49:48.164Z,6.20
2019-02-12T22:52:16.390Z,6.20
2019-02-12T22:54:44.682Z,6.30
2019-02-12T22:57:12.869Z,6.20
2019-02-12T22:59:40.795Z,6.20
2019-02-12T23:02:09.397Z,6.10
2019-02-12T23:04:37.335Z,6.20
2019-02-12T23:07:05.566Z,6.10
2019-02-12T23:09:33.726Z,6.10
2019-02-12T23:12:01.858Z,6.10
2019-02-12T23:14:30.030Z,6.10
2019-02-12T23:16:57.962Z,6.00
2019-02-12T23:19:26.102Z,6.00
2019-02-12T23:21:54.359Z,6.10
2019-02-12T23:24:22.842Z,6.00
2019-02-12T23:26:51.082Z,5.90
2019-02-12T23:29:19.054Z,6.00
2019-02-12T23:31:47.270Z,5.90
2019-02-12T23:34:15.319Z,5.90
2019-02-12T23:36:43.368Z,5.80
2019-02-12T23:39:11.424Z,5.90
2019-02-12T23:41:39.450Z,5.90
2019-02-12T23:44:07.418Z,5.90
2019-02-12T23:46:35.960Z,5.90
2019-02-12T23:49:04.242Z,6.00
2019-02-12T23:51:32.782Z,6.00
2019-02-12T23:54:03.574Z,5.90
2019-02-12T23:56:31.031Z,6.00
2019-02-12T23:58:59.379Z,6.00
